Time;durP1;ratioP1;P1;durP2;ratioP2;P2;SDS_P1;SDS_P2;PMS_P1;PMS_P2;Temp;Humidity;BMP_temperature;BMP_pressure;BME280_temperature;BME280_humidity;BME280_pressure;Samples;Min_cycle;Max_cycle;Signal;HPM_P1;HPM_P2
2021/03/29 00:01:23;552290.00;1.84;951.91;77637.00;0.26;134.96;;;;;16.10;1.00;;;;;;2264445;61;1741;-88
2021/03/29 00:03:50;582133.00;1.94;1003.38;93696.00;0.31;162.69;;;;;16.10;1.00;;;;;;2264488;61;1916;-89
2021/03/29 00:06:18;549940.00;1.83;947.86;79429.00;0.26;138.05;;;;;16.10;1.00;;;;;;2266230;61;1038;-88
2021/03/29 00:08:46;565596.00;1.89;974.85;77429.00;0.26;134.60;;;;;16.00;1.00;;;;;;2273030;61;1000;-88
2021/03/29 00:11:13;474563.00;1.58;818.04;83117.00;0.28;144.42;;;;;16.10;1.00;;;;;;2272982;61;1387;-87
2021/03/29 00:13:41;487019.00;1.62;839.48;78194.00;0.26;135.92;;;;;16.20;1.00;;;;;;2272920;61;1601;-89
2021/03/29 00:16:08;519493.00;1.73;895.39;82673.00;0.28;143.65;;;;;15.90;1.00;;;;;;2273036;61;905;-88
2021/03/29 00:18:35;610958.00;2.04;1053.14;80589.00;0.27;140.05;;;;;15.00;1.00;;;;;;2272989;61;1064;-90
2021/03/29 00:21:06;671718.00;2.24;1158.23;94199.00;0.31;163.56;;;;;13.80;1.00;;;;;;2272946;61;1327;-89
2021/03/29 00:23:35;121399576.00;404.67;72480256.00;85257.00;0.28;148.12;;;;;13.00;1.00;;;;;;2272948;61;1919;-88
2021/03/29 00:26:04;993848.00;3.31;1721.58;95021.00;0.32;164.98;;;;;12.80;1.00;;;;;;2272802;61;1119;-88
2021/03/29 00:28:30;605141.00;2.02;1043.10;77230.00;0.26;134.25;;;;;13.50;1.00;;;;;;2264403;61;991;-89
2021/03/29 00:30:57;703904.00;2.35;1214.01;80633.00;0.27;140.13;;;;;14.30;1.00;;;;;;2264406;61;1388;-89
2021/03/29 00:33:25;755942.00;2.52;1304.39;81857.00;0.27;142.24;;;;;15.00;1.00;;;;;;2264444;61;1014;-88
2021/03/29 00:35:53;762013.00;2.54;1314.95;78386.00;0.26;136.25;;;;;15.50;1.00;;;;;;2264487;61;1153;-90
2021/03/29 00:38:22;800130.00;2.67;1381.35;186861.00;0.62;323.30;;;;;15.40;1.00;;;;;;2261032;61;1012;-89
2021/03/29 00:40:52;631509.00;2.11;1088.66;0.00;0.00;0.62;;;;;15.40;1.00;;;;;;2264418;61;1298;-90
2021/03/29 00:43:21;389798.00;1.30;672.27;27023.00;0.09;47.43;;;;;15.50;1.00;;;;;;2252285;61;2011;-90
2021/03/29 00:45:51;474605.00;1.58;818.11;0.00;0.00;0.62;;;;;15.40;1.00;;;;;;2250690;61;944;-88
2021/03/29 00:48:20;427694.00;1.43;737.42;0.00;0.00;0.62;;;;;15.40;1.00;;;;;;2260141;61;1038;-90
2021/03/29 00:50:50;502940.00;1.68;866.89;0.00;0.00;0.62;;;;;14.90;1.00;;;;;;2253704;61;1400;-90
2021/03/29 00:53:17;367400.00;1.22;633.77;0.00;0.00;0.62;;;;;14.20;1.00;;;;;;2260422;61;1024;-89
2021/03/29 00:55:47;482737.00;1.61;832.11;85334.00;0.28;148.25;;;;;13.50;1.00;;;;;;2260315;61;1147;-90
2021/03/29 00:58:17;653168.00;2.18;1126.12;85499.00;0.28;148.54;;;;;12.90;1.00;;;;;;2260306;61;1762;-90
2021/03/29 01:00:46;847776.00;2.83;1464.58;17734.00;0.06;31.35;;;;;12.80;1.00;;;;;;2252214;61;1422;-90
2021/03/29 01:03:15;451471.00;1.50;778.31;0.00;0.00;0.62;;;;;13.20;1.00;;;;;;2255263;61;1989;-89
2021/03/29 01:05:44;586638.00;1.96;1011.15;0.00;0.00;0.62;;;;;13.10;1.00;;;;;;2264295;61;1235;-90
2021/03/29 01:08:12;508905.00;1.70;877.16;0.00;0.00;0.62;;;;;12.80;1.00;;;;;;2264314;61;1578;-90
2021/03/29 01:10:39;921906.00;3.07;1594.63;89061.00;0.30;154.69;;;;;13.00;1.00;;;;;;2264239;61;1327;-90
2021/03/29 01:13:10;608245.00;2.03;1048.46;90574.00;0.30;157.30;;;;;13.30;1.00;;;;;;2264199;61;1479;-89
2021/03/29 01:15:41;608608.00;2.03;1049.09;74382.00;0.25;129.33;;;;;13.60;1.00;;;;;;2264302;61;1119;-89
2021/03/29 01:18:13;563216.00;1.88;970.75;0.00;0.00;0.62;;;;;13.70;1.00;;;;;;2266370;61;994;-88
2021/03/29 01:20:56;443026.00;1.48;763.79;0.00;0.00;0.62;;;;;13.80;1.00;;;;;;2272847;61;1356;-90
2021/03/29 01:23:24;400318.00;1.33;690.35;24846.00;0.08;43.66;;;;;14.00;1.00;;;;;;2272856;61;1980;-89
2021/03/29 01:25:59;761162.00;2.54;1313.47;93453.00;0.31;162.27;;;;;14.00;1.00;;;;;;2272864;61;1030;-90
2021/03/29 01:28:27;347825.00;1.16;600.12;0.00;0.00;0.62;;;;;13.60;1.00;;;;;;2272770;61;1758;-90
2021/03/29 01:30:54;631964.00;2.11;1089.44;121182.00;0.40;210.12;;;;;13.20;1.00;;;;;;2272753;61;1410;-90
2021/03/29 01:33:24;477226.00;1.59;822.62;84788.00;0.28;147.31;;;;;12.70;1.00;;;;;;2265726;61;1006;-89
2021/03/29 01:35:55;583317.00;1.94;1005.42;83959.00;0.28;145.88;;;;;12.40;1.00;;;;;;2264217;61;1024;-89
2021/03/29 01:38:25;560466.00;1.87;966.00;79498.00;0.26;138.17;;;;;12.80;1.00;;;;;;2264298;61;1122;-90
2021/03/29 01:40:52;557723.00;1.86;961.27;85300.00;0.28;148.19;;;;;13.50;1.00;;;;;;2252178;61;1411;-89
2021/03/29 01:43:21;634982.00;2.12;1094.66;82065.00;0.27;142.60;;;;;14.30;1.00;;;;;;2245662;61;1923;-89
2021/03/29 01:45:49;633667.00;2.11;1092.39;72506.00;0.24;126.09;;;;;14.80;1.00;;;;;;2252278;61;1080;-89
2021/03/29 01:48:16;468711.00;1.56;807.97;82252.00;0.27;142.93;;;;;14.80;1.00;;;;;;2252202;61;1490;-89
2021/03/29 01:50:45;539141.00;1.80;929.24;87630.00;0.29;152.22;;;;;14.50;1.00;;;;;;2252246;61;1280;-88
2021/03/29 01:53:13;575421.00;1.92;991.80;84750.00;0.28;147.24;;;;;14.70;1.00;;;;;;2254899;61;1035;-89
2021/03/29 01:55:41;552951.00;1.84;953.05;131139.00;0.44;227.29;;;;;14.80;1.00;;;;;;2264228;61;1005;-90
2021/03/29 01:58:09;554966.00;1.85;956.52;83714.00;0.28;145.45;;;;;14.70;1.00;;;;;;2265082;61;1835;-89
2021/03/29 02:00:41;516395.00;1.72;890.06;83708.00;0.28;145.44;;;;;14.70;1.00;;;;;;2272728;61;1443;-89
2021/03/29 02:03:11;280105.00;0.93;483.72;0.00;0.00;0.62;;;;;14.90;1.00;;;;;;2264043;61;1923;-89
2021/03/29 02:05:39;584005.00;1.95;1006.61;83350.00;0.28;144.82;;;;;15.00;1.00;;;;;;2256091;61;972;-89
2021/03/29 02:08:07;393794.00;1.31;679.14;0.00;0.00;0.62;;;;;15.00;1.00;;;;;;2256122;61;998;-90
2021/03/29 02:10:36;376227.00;1.25;648.94;0.00;0.00;0.62;;;;;15.20;1.00;;;;;;2256072;61;1725;-89
2021/03/29 02:13:05;445600.00;1.49;768.21;0.00;0.00;0.62;;;;;15.30;1.00;;;;;;2256169;61;1131;-90
2021/03/29 02:15:33;319246.00;1.06;551.00;0.00;0.00;0.62;;;;;15.40;1.00;;;;;;2252075;61;951;-89
2021/03/29 02:18:02;284910.00;0.95;491.98;0.00;0.00;0.62;;;;;14.90;1.00;;;;;;2245547;61;966;-87
2021/03/29 02:20:33;703449.00;2.34;1213.22;173176.00;0.58;299.74;;;;;13.90;1.00;;;;;;2253709;61;1250;-88
2021/03/29 02:23:01;433465.00;1.44;747.34;92926.00;0.31;161.36;;;;;13.10;1.00;;;;;;2253527;61;1996;-89
2021/03/29 02:25:31;694426.00;2.31;1197.57;89822.00;0.30;156.00;;;;;12.10;1.00;;;;;;2260063;61;1027;-87
2021/03/29 02:28:00;768034.00;2.56;1325.43;78603.00;0.26;136.62;;;;;10.90;1.00;;;;;;2260063;61;1679;-87
2021/03/29 02:30:29;785096.00;2.62;1355.14;34128.00;0.11;59.73;;;;;10.30;1.00;;;;;;2250125;61;1310;-89
2021/03/29 02:32:58;789556.00;2.63;1362.92;40052.00;0.13;69.98;;;;;10.50;1.00;;;;;;2261003;61;1008;-88
2021/03/29 02:35:26;476087.00;1.59;820.66;0.00;0.00;0.62;;;;;11.40;1.00;;;;;;2264085;61;1076;-88
2021/03/29 02:37:57;543360.00;1.81;936.51;0.00;0.00;0.62;;;;;12.30;1.00;;;;;;2264006;61;1708;-88
2021/03/29 02:40:26;433846.00;1.45;748.00;42913.00;0.14;74.93;;;;;13.10;1.00;;;;;;2266073;61;1391;-88
2021/03/29 02:42:55;326892.00;1.09;564.14;0.00;0.00;0.62;;;;;13.60;1.00;;;;;;2272572;61;1996;-88
2021/03/29 02:45:25;303691.00;1.01;524.26;0.00;0.00;0.62;;;;;14.10;1.00;;;;;;2260033;61;972;-89
2021/03/29 02:47:55;314991.00;1.05;543.69;0.00;0.00;0.62;;;;;14.30;1.00;;;;;;2260083;61;1028;-89
2021/03/29 02:50:26;349794.00;1.17;603.51;0.00;0.00;0.62;;;;;14.40;1.00;;;;;;2260035;61;1328;-88
2021/03/29 02:52:56;357282.00;1.19;616.38;0.00;0.00;0.62;;;;;14.50;1.00;;;;;;2260025;61;1000;-89
2021/03/29 02:55:25;676119.00;2.25;1165.85;0.00;0.00;0.62;;;;;14.70;1.00;;;;;;2260090;61;989;-88
2021/03/29 02:57:54;477829.00;1.59;823.66;0.00;0.00;0.62;;;;;14.80;1.00;;;;;;2260041;61;1206;-87
2021/03/29 03:00:24;355318.00;1.18;613.00;0.00;0.00;0.62;;;;;14.80;1.00;;;;;;2259936;61;1535;-88
2021/03/29 03:02:53;342673.00;1.14;591.27;0.00;0.00;0.62;;;;;14.60;1.00;;;;;;2263420;61;1923;-88
2021/03/29 03:05:25;183895.00;0.61;318.20;0.00;0.00;0.62;;;;;14.50;1.00;;;;;;2265492;61;1013;-89
2021/03/29 03:07:54;266719.00;0.89;460.70;0.00;0.00;0.62;;;;;14.40;1.00;;;;;;2272446;61;1440;-88
2021/03/29 03:10:21;417913.00;1.39;720.60;0.00;0.00;0.62;;;;;14.10;1.00;;;;;;2272471;61;1414;-89
2021/03/29 03:12:49;295524.00;0.99;510.23;0.00;0.00;0.62;;;;;14.10;1.00;;;;;;2272527;61;918;-89
2021/03/29 03:15:18;290649.00;0.97;501.85;0.00;0.00;0.62;;;;;14.10;1.00;;;;;;2272493;61;1063;-89
2021/03/29 03:17:45;299373.00;1.00;516.84;0.00;0.00;0.62;;;;;14.20;1.00;;;;;;2259961;61;1069;-88
2021/03/29 03:20:13;278030.00;0.93;480.15;0.00;0.00;0.62;;;;;14.30;1.00;;;;;;2259960;61;1314;-89
2021/03/29 03:22:53;427673.00;1.43;737.38;0.00;0.00;0.62;;;;;14.40;1.00;;;;;;2259929;61;1717;-88
2021/03/29 03:25:22;215925.00;0.72;373.33;0.00;0.00;0.62;;;;;14.50;1.00;;;;;;2259971;61;1606;-88
2021/03/29 03:27:49;350617.00;1.17;604.92;19625.00;0.07;34.62;;;;;14.70;1.00;;;;;;2259983;61;1119;-89
2021/03/29 03:30:18;283729.00;0.95;489.95;0.00;0.00;0.62;;;;;14.90;1.00;;;;;;2255864;61;1414;-88
2021/03/29 03:32:45;423522.00;1.41;730.25;0.00;0.00;0.62;;;;;15.10;1.00;;;;;;2255996;61;972;-89
2021/03/29 03:35:14;623604.00;2.08;1074.99;39766.00;0.13;69.48;;;;;15.30;1.00;;;;;;2258678;61;1095;-89
2021/03/29 03:37:45;424607.00;1.42;732.11;0.00;0.00;0.62;;;;;15.30;1.00;;;;;;2260571;61;1122;-89
2021/03/29 03:40:14;210270.00;0.70;363.60;0.00;0.00;0.62;;;;;15.50;1.00;;;;;;2260613;61;1415;-89
2021/03/29 03:42:42;257863.00;0.86;445.47;0.00;0.00;0.62;;;;;15.30;1.00;;;;;;2260580;61;1127;-88
2021/03/29 03:45:10;444369.00;1.48;766.10;0.00;0.00;0.62;;;;;15.20;1.00;;;;;;2260594;61;2019;-89
2021/03/29 03:47:38;333504.00;1.11;575.51;0.00;0.00;0.62;;;;;15.10;1.00;;;;;;2262322;61;1037;-89
2021/03/29 03:50:08;338981.00;1.13;584.92;0.00;0.00;0.62;;;;;15.00;1.00;;;;;;2268584;61;1400;-88
2021/03/29 03:52:36;318560.00;1.06;549.82;17170.00;0.06;30.37;;;;;14.50;1.00;;;;;;2268598;61;1041;-88
2021/03/29 03:55:04;342191.00;1.14;590.44;0.00;0.00;0.62;;;;;13.80;1.00;;;;;;2269535;61;1039;-88
2021/03/29 03:57:33;468148.00;1.56;807.00;44537.00;0.15;77.74;;;;;13.60;1.00;;;;;;2273088;61;1133;-88
2021/03/29 04:00:00;590676.00;1.97;1018.12;49025.00;0.16;85.50;;;;;13.60;1.00;;;;;;2273114;61;1126;-88
2021/03/29 04:02:26;261558.00;0.87;451.83;0.00;0.00;0.62;;;;;13.30;1.00;;;;;;2273049;61;1080;-88
2021/03/29 04:04:54;371369.00;1.24;640.59;0.00;0.00;0.62;;;;;13.20;1.00;;;;;;2272918;61;1932;-88
2021/03/29 04:07:21;436476.00;1.45;752.52;0.00;0.00;0.62;;;;;13.30;1.00;;;;;;2273067;61;1011;-88
2021/03/29 04:09:53;440117.00;1.47;758.78;0.00;0.00;0.62;;;;;13.20;1.00;;;;;;2272795;61;1171;-89
2021/03/29 04:12:19;379491.00;1.26;654.55;0.00;0.00;0.62;;;;;13.70;1.00;;;;;;2273044;61;1376;-88
2021/03/29 04:14:47;482492.00;1.61;831.69;0.00;0.00;0.62;;;;;13.70;1.00;;;;;;2273018;61;1708;-88
2021/03/29 04:17:13;325186.00;1.08;561.21;0.00;0.00;0.62;;;;;13.60;1.00;;;;;;2273075;61;935;-88
2021/03/29 04:19:39;354688.00;1.18;611.92;0.00;0.00;0.62;;;;;13.80;1.00;;;;;;2273064;61;1053;-90
2021/03/29 04:22:06;290880.00;0.97;502.24;0.00;0.00;0.62;;;;;13.70;1.00;;;;;;2273010;61;1326;-86
2021/03/29 04:24:34;447173.00;1.49;770.92;0.00;0.00;0.62;;;;;14.10;1.00;;;;;;2273031;61;1911;-88
2021/03/29 04:27:00;402742.00;1.34;694.52;0.00;0.00;0.62;;;;;14.50;1.00;;;;;;2273024;61;1119;-86
2021/03/29 04:29:27;283071.00;0.94;488.82;0.00;0.00;0.62;;;;;14.50;1.00;;;;;;2273014;61;1008;-88
2021/03/29 04:31:54;411531.00;1.37;709.63;19291.00;0.06;34.04;;;;;14.30;1.00;;;;;;2272967;61;1400;-87
2021/03/29 04:34:20;359337.00;1.20;619.91;0.00;0.00;0.62;;;;;13.90;1.00;;;;;;2272840;61;946;-88
2021/03/29 04:36:47;546861.00;1.82;942.55;0.00;0.00;0.62;;;;;13.70;1.00;;;;;;2272786;61;1040;-88
2021/03/29 04:39:13;269384.00;0.90;465.28;0.00;0.00;0.62;;;;;13.90;1.00;;;;;;2272936;61;1026;-88
2021/03/29 04:41:40;444740.00;1.48;766.74;0.00;0.00;0.62;;;;;14.40;1.00;;;;;;2272739;61;1413;-90
2021/03/29 04:44:07;534988.00;1.78;922.09;0.00;0.00;0.62;;;;;14.50;1.00;;;;;;2272803;61;2002;-90
2021/03/29 04:46:34;713746.00;2.38;1231.08;0.00;0.00;0.62;;;;;14.40;1.00;;;;;;2272668;61;900;-88
2021/03/29 04:49:01;634568.00;2.12;1093.95;0.00;0.00;0.62;;;;;14.00;1.00;;;;;;2272785;61;1733;-89
2021/03/29 04:51:27;466190.00;1.55;803.63;0.00;0.00;0.62;;;;;13.60;1.00;;;;;;2272734;61;1469;-89
2021/03/29 04:53:54;617868.00;2.06;1065.08;0.00;0.00;0.62;;;;;13.30;1.00;;;;;;2272829;61;1737;-89
2021/03/29 04:56:20;384634.00;1.28;663.39;0.00;0.00;0.62;;;;;13.20;1.00;;;;;;2272927;61;1000;-89
2021/03/29 04:58:47;226548.00;0.76;391.61;0.00;0.00;0.62;;;;;13.50;1.00;;;;;;2272690;61;1127;-90
2021/03/29 05:01:13;337802.00;1.13;582.90;0.00;0.00;0.62;;;;;13.70;1.00;;;;;;2272792;61;1284;-90
2021/03/29 05:03:39;337187.00;1.12;581.84;0.00;0.00;0.62;;;;;14.10;1.00;;;;;;2272096;61;2010;-89
2021/03/29 05:06:07;371393.00;1.24;640.63;51163.00;0.17;89.20;;;;;13.70;1.00;;;;;;2272804;61;1127;-89
2021/03/29 05:08:33;325021.00;1.08;560.93;0.00;0.00;0.62;;;;;13.00;1.00;;;;;;2272771;61;1012;-90
2021/03/29 05:11:00;293805.00;0.98;507.27;0.00;0.00;0.62;;;;;12.70;1.00;;;;;;2272605;61;1712;-86
2021/03/29 05:13:26;470233.00;1.57;810.59;0.00;0.00;0.62;;;;;12.20;1.00;;;;;;2272776;61;1044;-87
2021/03/29 05:15:52;571724.00;1.91;985.42;7326.00;0.02;13.32;;;;;11.80;1.00;;;;;;2272302;61;1674;-87
2021/03/29 05:18:19;589745.00;1.97;1016.52;0.00;0.00;0.62;;;;;11.50;1.00;;;;;;2272780;61;1033;-86
2021/03/29 05:20:45;545004.00;1.82;939.35;0.00;0.00;0.62;;;;;11.50;1.00;;;;;;2271927;61;1723;-87
2021/03/29 05:23:12;503218.00;1.68;867.36;0.00;0.00;0.62;;;;;11.40;1.00;;;;;;2272709;61;1986;-86
2021/03/29 05:25:39;460117.00;1.53;793.19;0.00;0.00;0.62;;;;;11.40;1.00;;;;;;2260144;61;1078;-87
2021/03/29 05:28:06;485944.00;1.62;837.63;0.00;0.00;0.62;;;;;11.20;1.00;;;;;;2260166;61;1134;-88
2021/03/29 05:30:32;482189.00;1.61;831.16;0.00;0.00;0.62;;;;;11.10;1.00;;;;;;2253372;61;1414;-87
2021/03/29 05:32:59;591147.00;1.97;1018.94;0.00;0.00;0.62;;;;;10.50;1.00;;;;;;2260012;61;1009;-87
2021/03/29 05:35:25;783996.00;2.61;1353.23;55496.00;0.18;96.69;;;;;10.30;1.00;;;;;;2256775;61;1045;-87
2021/03/29 05:37:51;443570.00;1.48;764.72;0.00;0.00;0.62;;;;;10.70;1.00;;;;;;2260171;61;1018;-86
2021/03/29 05:40:19;546859.00;1.82;942.54;0.00;0.00;0.62;;;;;10.60;1.00;;;;;;2256504;61;1325;-87
2021/03/29 05:42:46;679313.00;2.26;1171.38;0.00;0.00;0.62;;;;;10.70;1.00;;;;;;2256560;61;981;-88
2021/03/29 05:45:14;827070.00;2.76;1428.38;0.00;0.00;0.62;;;;;10.80;1.00;;;;;;2264118;61;1927;-88
2021/03/29 05:47:41;1096266.00;3.65;1903.75;66560.00;0.22;115.82;;;;;10.60;1.00;;;;;;2263541;61;1004;-87
2021/03/29 05:50:15;550526.00;1.84;948.87;0.00;0.00;0.62;;;;;11.10;1.00;;;;;;2257430;61;1250;-88
2021/03/29 05:52:43;684034.00;2.28;1179.56;0.00;0.00;0.62;;;;;11.50;1.00;;;;;;2263934;61;1136;-89
2021/03/29 05:55:13;497768.00;1.66;857.98;0.00;0.00;0.62;;;;;11.90;1.00;;;;;;2263988;61;1007;-88
2021/03/29 05:57:53;488352.00;1.63;841.77;0.00;0.00;0.62;;;;;12.20;1.00;;;;;;2260065;61;955;-88
2021/03/29 06:00:39;216329.00;0.72;374.03;0.00;0.00;0.62;;;;;12.40;1.00;;;;;;2261317;61;1331;-86
2021/03/29 06:03:23;436408.00;1.45;752.41;0.00;0.00;0.62;;;;;12.70;1.00;;;;;;2260730;61;2014;-87
2021/03/29 06:05:51;138846.00;0.46;240.58;0.00;0.00;0.62;;;;;12.90;1.00;;;;;;2264037;61;929;-87
2021/03/29 06:08:18;433987.00;1.45;748.24;62890.00;0.21;109.47;;;;;13.20;1.00;;;;;;2264051;61;985;-87
2021/03/29 06:10:45;270797.00;0.90;467.71;0.00;0.00;0.62;;;;;13.50;1.00;;;;;;2264047;61;1389;-87
2021/03/29 06:13:17;269142.00;0.90;464.87;0.00;0.00;0.62;;;;;13.30;1.00;;;;;;2263916;61;1029;-87
2021/03/29 06:15:44;237452.00;0.79;410.37;0.00;0.00;0.62;;;;;13.60;1.00;;;;;;2268379;61;998;-87
2021/03/29 06:18:15;325024.00;1.08;560.93;0.00;0.00;0.62;;;;;14.50;1.00;;;;;;2272573;61;1127;-87
2021/03/29 06:21:15;254303.00;0.85;439.35;0.00;0.00;0.62;;;;;14.90;1.00;;;;;;2272052;61;1482;-87
2021/03/29 06:23:55;188829.00;0.63;326.69;0.00;0.00;0.62;;;;;14.40;1.00;;;;;;2272552;61;1920;-87
2021/03/29 06:26:25;254787.00;0.85;440.18;0.00;0.00;0.62;;;;;14.20;1.00;;;;;;2272414;61;1069;-87
2021/03/29 06:28:53;317694.00;1.06;548.33;0.00;0.00;0.62;;;;;14.10;1.00;;;;;;2272479;61;1034;-86
2021/03/29 06:31:25;354462.00;1.18;611.53;0.00;0.00;0.62;;;;;14.30;1.00;;;;;;2272374;61;1294;-86
2021/03/29 06:33:53;174316.00;0.58;301.70;0.00;0.00;0.62;;;;;14.00;1.00;;;;;;2272505;61;1201;-86
2021/03/29 06:36:35;191509.00;0.64;331.31;0.00;0.00;0.62;;;;;14.20;1.00;;;;;;2272465;61;1106;-86
2021/03/29 06:39:16;350019.00;1.17;603.89;0.00;0.00;0.62;;;;;14.00;1.00;;;;;;2272519;61;1106;-86
2021/03/29 06:41:51;216439.00;0.72;374.22;0.00;0.00;0.62;;;;;13.60;1.00;;;;;;2272417;61;1731;-86
2021/03/29 06:44:25;234705.00;0.78;405.64;0.00;0.00;0.62;;;;;13.40;1.00;;;;;;2272442;61;1919;-86
2021/03/29 06:47:07;353868.00;1.18;610.51;2660.00;0.01;5.23;;;;;13.10;1.00;;;;;;2272325;61;1067;-86
2021/03/29 06:49:41;177916.00;0.59;307.90;0.00;0.00;0.62;;;;;13.00;1.00;;;;;;2272385;61;1107;-86
2021/03/29 06:52:26;211959.00;0.71;366.51;0.00;0.00;0.62;;;;;13.50;1.00;;;;;;2272363;61;1405;-86
2021/03/29 06:54:53;239519.00;0.80;413.92;0.00;0.00;0.62;;;;;13.30;1.00;;;;;;2272317;61;1299;-86
2021/03/29 06:57:28;307059.00;1.02;530.05;0.00;0.00;0.62;;;;;13.50;1.00;;;;;;2272383;61;990;-85
2021/03/29 06:59:56;313088.00;1.04;540.42;17905.00;0.06;31.64;;;;;13.50;1.00;;;;;;2272395;61;1139;-86
2021/03/29 07:02:40;216871.00;0.72;374.96;0.00;0.00;0.62;;;;;14.10;1.00;;;;;;2272342;61;1349;-86
2021/03/29 07:05:09;120338.00;0.40;208.67;0.00;0.00;0.62;;;;;13.40;1.00;;;;;;2272108;61;2020;-86
2021/03/29 07:07:37;199716.00;0.67;345.43;0.00;0.00;0.62;;;;;13.30;1.00;;;;;;2272361;61;1092;-86
2021/03/29 07:10:07;373663.00;1.25;644.53;34831.00;0.12;60.94;;;;;13.50;1.00;;;;;;2272298;61;1396;-86
2021/03/29 07:12:38;177323.00;0.59;306.88;9828.00;0.03;17.65;;;;;14.10;1.00;;;;;;2272364;61;1118;-86
2021/03/29 07:15:09;234268.00;0.78;404.89;0.00;0.00;0.62;;;;;14.30;1.00;;;;;;2272350;61;1060;-87
2021/03/29 07:17:39;268047.00;0.89;462.99;0.00;0.00;0.62;;;;;14.70;1.00;;;;;;2272242;61;1588;-87
2021/03/29 07:20:07;162180.00;0.54;280.80;0.00;0.00;0.62;;;;;15.00;1.00;;;;;;2272231;61;1396;-87
2021/03/29 07:22:36;444573.00;1.48;766.45;15739.00;0.05;27.89;;;;;14.60;1.00;;;;;;2272358;61;1066;-87
2021/03/29 07:25:07;209350.00;0.70;362.02;0.00;0.00;0.62;;;;;14.70;1.00;;;;;;2272249;61;1914;-87
2021/03/29 07:27:38;83012.00;0.28;144.24;0.00;0.00;0.62;;;;;15.00;1.00;;;;;;2272371;61;947;-86
2021/03/29 07:30:07;128095.00;0.43;222.04;0.00;0.00;0.62;;;;;14.70;1.00;;;;;;2272221;61;1376;-86
2021/03/29 07:32:35;173010.00;0.58;299.45;0.00;0.00;0.62;;;;;14.50;1.00;;;;;;2272274;61;1021;-87
2021/03/29 07:35:03;425838.00;1.42;734.23;50839.00;0.17;88.64;;;;;14.50;1.00;;;;;;2272256;61;1063;-86
2021/03/29 07:37:33;165091.00;0.55;285.81;0.00;0.00;0.62;;;;;15.20;1.00;;;;;;2272323;61;1000;-87
2021/03/29 07:40:03;214746.00;0.72;371.30;0.00;0.00;0.62;;;;;15.40;1.00;;;;;;2272260;61;1099;-86
2021/03/29 07:42:40;136948.00;0.46;237.31;0.00;0.00;0.62;;;;;15.80;1.00;;;;;;2272327;61;1119;-88
2021/03/29 07:45:13;175861.00;0.59;304.36;0.00;0.00;0.62;;;;;15.80;1.00;;;;;;2272202;61;1974;-87
2021/03/29 07:47:50;276297.00;0.92;477.17;0.00;0.00;0.62;;;;;15.50;1.00;;;;;;2272231;61;1589;-87
2021/03/29 07:50:48;228914.00;0.76;395.68;0.00;0.00;0.62;;;;;15.50;1.00;;;;;;2272240;61;1384;-87
2021/03/29 07:53:19;162696.00;0.54;281.68;0.00;0.00;0.62;;;;;16.10;1.00;;;;;;2272175;61;1125;-87
2021/03/29 07:55:49;164242.00;0.55;284.35;0.00;0.00;0.62;;;;;16.50;1.00;;;;;;2272293;61;1097;-87
2021/03/29 07:58:16;167188.00;0.56;289.42;0.00;0.00;0.62;;;;;16.80;1.00;;;;;;2272202;61;1147;-86
2021/03/29 08:00:56;84078.00;0.28;146.08;0.00;0.00;0.62;;;;;17.00;1.00;;;;;;2272215;61;1311;-86
2021/03/29 08:03:47;203691.00;0.68;352.28;0.00;0.00;0.62;;;;;17.10;1.00;;;;;;2272191;61;1990;-86
2021/03/29 08:06:55;92721.00;0.31;161.01;0.00;0.00;0.62;;;;;17.70;1.00;;;;;;2272232;61;1597;-87
2021/03/29 08:09:42;44688.00;0.15;78.00;0.00;0.00;0.62;;;;;18.40;1.00;;;;;;2272290;61;1011;-87
2021/03/29 08:12:09;137533.00;0.46;238.32;0.00;0.00;0.62;;;;;18.80;1.00;;;;;;2272202;61;1329;-87
2021/03/29 08:14:41;269177.00;0.90;464.93;4951.00;0.02;9.20;;;;;18.10;1.00;;;;;;2272223;61;1107;-86
2021/03/29 08:17:37;177287.00;0.59;306.82;0.00;0.00;0.62;;;;;17.20;1.00;;;;;;2272220;61;1135;-87
2021/03/29 08:20:09;545481.00;1.82;940.17;71639.00;0.24;124.59;;;;;17.30;1.00;;;;;;2272190;61;1302;-87
2021/03/29 08:22:37;451388.00;1.50;778.17;0.00;0.00;0.62;;;;;18.10;1.00;;;;;;2272962;61;1003;-86
2021/03/29 08:25:04;310323.00;1.03;535.66;0.00;0.00;0.62;;;;;18.90;1.00;;;;;;2272891;61;1918;-87
2021/03/29 08:27:32;362166.00;1.21;624.77;88264.00;0.29;153.31;;;;;19.60;1.00;;;;;;2272892;61;956;-87
2021/03/29 08:30:11;82548.00;0.28;143.44;0.00;0.00;0.62;;;;;20.10;1.00;;;;;;2272890;61;1094;-87
2021/03/29 08:32:38;131497.00;0.44;227.91;0.00;0.00;0.62;;;;;20.20;1.00;;;;;;2272850;61;1040;-88
2021/03/29 08:35:06;109334.00;0.36;189.68;0.00;0.00;0.62;;;;;20.50;1.00;;;;;;2272834;61;1105;-88
2021/03/29 08:37:38;299687.00;1.00;517.38;23544.00;0.08;41.41;;;;;20.40;1.00;;;;;;2272831;61;1059;-88
2021/03/29 08:40:12;27915.00;0.09;48.97;0.00;0.00;0.62;;;;;20.90;1.00;;;;;;2272815;61;1490;-87
2021/03/29 08:42:40;252387.00;0.84;436.06;0.00;0.00;0.62;;;;;20.30;1.00;;;;;;2272860;61;1029;-87
2021/03/29 08:45:09;118779.00;0.40;205.98;0.00;0.00;0.62;;;;;19.90;1.00;;;;;;2272810;61;1911;-87
2021/03/29 08:47:39;48386.00;0.16;84.39;0.00;0.00;0.62;;;;;19.70;1.00;;;;;;2272873;61;706;-87
2021/03/29 08:50:09;589355.00;1.96;1015.84;147268.00;0.49;255.10;;;;;20.00;1.00;;;;;;2272778;61;1435;-87
2021/03/29 08:52:42;756555.00;2.52;1305.46;87169.00;0.29;151.42;;;;;20.30;1.00;;;;;;2272661;61;1936;-86
2021/03/29 08:55:10;1529291.00;5.10;2698.36;286167.00;0.95;494.14;;;;;20.00;1.00;;;;;;2272819;61;1040;-87
2021/03/29 08:57:37;548578.00;1.83;945.51;0.00;0.00;0.62;;;;;19.90;1.00;;;;;;2272776;61;1141;-87
2021/03/29 09:00:11;852172.00;2.84;1472.27;24109.00;0.08;42.38;;;;;19.40;1.00;;;;;;2272718;61;1415;-88
2021/03/29 09:02:38;642332.00;2.14;1107.37;74345.00;0.25;129.27;;;;;19.30;1.00;;;;;;2272776;61;1106;-87
2021/03/29 09:05:07;655791.00;2.19;1130.66;23446.00;0.08;41.24;;;;;18.30;1.00;;;;;;2272675;61;1923;-87
2021/03/29 09:07:37;708678.00;2.36;1222.29;18627.00;0.06;32.89;;;;;18.10;1.00;;;;;;2272736;61;1044;-87
2021/03/29 09:10:19;1076942.00;3.59;1869.24;93166.00;0.31;161.77;;;;;18.30;1.00;;;;;;2272674;61;1418;-87
2021/03/29 09:12:52;622953.00;2.08;1073.87;75675.00;0.25;131.57;;;;;18.60;1.00;;;;;;2272767;61;1301;-88
2021/03/29 09:15:19;705022.00;2.35;1215.95;99164.00;0.33;172.13;;;;;18.30;1.00;;;;;;2272671;61;1035;-88
2021/03/29 09:17:55;835194.00;2.78;1442.57;69445.00;0.23;120.80;;;;;18.60;1.00;;;;;;2272680;61;1326;-88
2021/03/29 09:20:24;531418.00;1.77;915.93;57992.00;0.19;101.01;;;;;18.80;1.00;;;;;;2272648;61;1457;-88
2021/03/29 09:22:50;637306.00;2.12;1098.68;0.00;0.00;0.62;;;;;18.60;1.00;;;;;;2272680;61;1116;-87
2021/03/29 09:25:29;910709.00;3.04;1574.94;190469.00;0.63;329.52;;;;;18.70;1.00;;;;;;2272583;61;2006;-88
2021/03/29 09:28:11;275168.00;0.92;475.23;24111.00;0.08;42.39;;;;;19.10;1.00;;;;;;2272596;61;1173;-88
2021/03/29 09:30:37;335936.00;1.12;579.69;37859.00;0.13;66.18;;;;;19.20;1.00;;;;;;2272569;61;1262;-87
2021/03/29 09:33:05;687277.00;2.29;1185.18;94211.00;0.31;163.58;;;;;19.20;1.00;;;;;;2272621;61;1064;-87
2021/03/29 09:35:31;537572.00;1.79;926.54;28915.00;0.10;50.71;;;;;19.00;1.00;;;;;;2272688;61;1068;-88
2021/03/29 09:37:58;421664.00;1.41;727.05;0.00;0.00;0.62;;;;;18.70;1.00;;;;;;2272657;61;1139;-87
2021/03/29 09:40:33;470707.00;1.57;811.41;0.00;0.00;0.62;;;;;18.40;1.00;;;;;;2272546;61;1711;-87
2021/03/29 09:42:59;623025.00;2.08;1073.99;53615.00;0.18;93.44;;;;;18.90;1.00;;;;;;2272534;61;1600;-88
2021/03/29 09:45:28;325068.00;1.08;561.01;0.00;0.00;0.62;;;;;19.20;1.00;;;;;;2272555;61;2009;-88
2021/03/29 09:48:04;324298.00;1.08;559.69;19004.00;0.06;33.55;;;;;19.70;1.00;;;;;;2272677;61;1103;-88
2021/03/29 09:50:34;96996.00;0.32;168.39;0.00;0.00;0.62;;;;;19.50;1.00;;;;;;2272608;61;1474;-88
2021/03/29 09:53:13;22653.00;0.08;39.86;0.00;0.00;0.62;;;;;19.80;1.00;;;;;;2272576;61;914;-87
2021/03/29 09:55:47;689828.00;2.30;1189.60;97308.00;0.32;168.92;;;;;19.70;1.00;;;;;;2272474;61;1163;-88
2021/03/29 09:58:25;118238.00;0.39;205.04;0.00;0.00;0.62;;;;;19.80;1.00;;;;;;2272566;61;1166;-87